Terminal Aerodrome Forecast
Issued by NWS

Home | Current Version | Previous Version | Text Only | Print | Product List | Glossary On
Versions: 1 2 3 4 5 6 7 8 9 10 11 12 13 14
130
FTAK31 PAJN 271123
TAFAKT
TAF
PAKT 271123Z 2712/2812 VRB03KT P6SM VCSH SCT025 BKN040 OVC060
      TEMPO 2712/2716 -SHRA BKN025 OVC050
     FM272200 VRB05KT P6SM -SHRA VCTS SCT025CB OVC050
     FM280300 14007KT P6SM VCSH SCT010 BKN025 OVC050
      AMD LTD TO CLD VIS AND WIND 2712/2715=

USA.gov is the U.S. government's official web portal to all federal, state and local government web resources and services.